Santa Cruz, California
Current Conditions -  °F | °C
As of 10:53 AM on Tuesday 27 Jan 2015 (Local Time) from KWVI Reporting Station
Overcast Overcast  
Wind Chill: 62°   Ceiling: 9500
Heat Index: 62°   Visibility: 10mi
Dew Point: 50°   Wind: 0mph
Humidity: 65%   Direction: NA
Pressure: 30.22"   Gusts: NA
Location:  36.97°N, 122.03°W
Report Text: KWVI 271853Z AUTO 00000KT 10SM OVC095 17/10 A3022 RMK AO2 RAE12 SLP234 P0000 T01670100
Loading
Personal Weather Stations






























Interactive Weather Map New forecast layout! Learn more

10-Day Weather Forecast

Advertisements
Track Severe Weather on mobile